sensor_id;sensor_type;location;lat;lon;timestamp;temperature;humidity
65995;HTU21D;52764;51.036;5.852;2024-02-28T00:01:04;4.43;79.28
65995;HTU21D;52764;51.036;5.852;2024-02-28T00:03:29;4.38;79.61
65995;HTU21D;52764;51.036;5.852;2024-02-28T00:05:57;4.38;79.69
65995;HTU21D;52764;51.036;5.852;2024-02-28T00:08:23;4.39;79.37
65995;HTU21D;52764;51.036;5.852;2024-02-28T00:10:49;4.39;79.30
65995;HTU21D;52764;51.036;5.852;2024-02-28T00:13:15;4.39;79.33
65995;HTU21D;52764;51.036;5.852;2024-02-28T00:15:41;4.39;79.07
65995;HTU21D;52764;51.036;5.852;2024-02-28T00:18:07;4.34;78.87
65995;HTU21D;52764;51.036;5.852;2024-02-28T00:20:33;4.27;78.76
65995;HTU21D;52764;51.036;5.852;2024-02-28T00:22:58;4.17;78.88
65995;HTU21D;52764;51.036;5.852;2024-02-28T00:25:24;11.00;78.69
65995;HTU21D;52764;51.036;5.852;2024-02-28T00:27:50;3.90;79.02
65995;HTU21D;52764;51.036;5.852;2024-02-28T00:30:17;3.89;79.47
65995;HTU21D;52764;51.036;5.852;2024-02-28T00:32:43;3.93;79.58
65995;HTU21D;52764;51.036;5.852;2024-02-28T00:35:08;3.99;79.43
65995;HTU21D;52764;51.036;5.852;2024-02-28T00:37:34;4.00;79.26
65995;HTU21D;52764;51.036;5.852;2024-02-28T00:40:00;4.00;79.16
65995;HTU21D;52764;51.036;5.852;2024-02-28T00:42:25;4.02;78.88
65995;HTU21D;52764;51.036;5.852;2024-02-28T00:44:52;3.97;78.73
65995;HTU21D;52764;51.036;5.852;2024-02-28T00:47:18;3.91;78.80
65995;HTU21D;52764;51.036;5.852;2024-02-28T00:49:44;3.90;78.80
65995;HTU21D;52764;51.036;5.852;2024-02-28T00:52:09;5.30;78.52
65995;HTU21D;52764;51.036;5.852;2024-02-28T00:54:36;3.95;78.26
65995;HTU21D;52764;51.036;5.852;2024-02-28T00:57:02;3.90;78.50
65995;HTU21D;52764;51.036;5.852;2024-02-28T00:59:28;3.86;78.27
65995;HTU21D;52764;51.036;5.852;2024-02-28T01:01:54;3.80;78.85
65995;HTU21D;52764;51.036;5.852;2024-02-28T01:04:19;3.78;78.89
65995;HTU21D;52764;51.036;5.852;2024-02-28T01:06:46;3.78;79.04
65995;HTU21D;52764;51.036;5.852;2024-02-28T01:09:12;3.82;79.33
65995;HTU21D;52764;51.036;5.852;2024-02-28T01:11:37;3.85;79.31
65995;HTU21D;52764;51.036;5.852;2024-02-28T01:14:04;3.89;79.45
65995;HTU21D;52764;51.036;5.852;2024-02-28T01:16:29;3.97;79.38
65995;HTU21D;52764;51.036;5.852;2024-02-28T01:18:55;4.01;79.75
65995;HTU21D;52764;51.036;5.852;2024-02-28T01:21:21;4.05;80.12
65995;HTU21D;52764;51.036;5.852;2024-02-28T01:23:47;18.25;80.55
65995;HTU21D;52764;51.036;5.852;2024-02-28T01:26:12;4.24;80.61
65995;HTU21D;52764;51.036;5.852;2024-02-28T01:28:38;4.36;80.49
65995;HTU21D;52764;51.036;5.852;2024-02-28T01:31:04;4.45;80.42
65995;HTU21D;52764;51.036;5.852;2024-02-28T01:33:31;4.50;80.19
65995;HTU21D;52764;51.036;5.852;2024-02-28T01:35:57;4.53;80.12
65995;HTU21D;52764;51.036;5.852;2024-02-28T01:38:24;4.60;80.17
65995;HTU21D;52764;51.036;5.852;2024-02-28T01:40:52;4.63;79.88
65995;HTU21D;52764;51.036;5.852;2024-02-28T01:43:18;4.62;79.76
65995;HTU21D;52764;51.036;5.852;2024-02-28T01:45:43;4.60;79.80
65995;HTU21D;52764;51.036;5.852;2024-02-28T01:48:10;4.52;80.00
65995;HTU21D;52764;51.036;5.852;2024-02-28T01:50:38;4.51;80.50
65995;HTU21D;52764;51.036;5.852;2024-02-28T01:53:06;4.62;80.70
65995;HTU21D;52764;51.036;5.852;2024-02-28T01:55:35;4.78;80.37
65995;HTU21D;52764;51.036;5.852;2024-02-28T01:58:02;4.91;80.08
65995;HTU21D;52764;51.036;5.852;2024-02-28T02:00:33;5.02;79.85
65995;HTU21D;52764;51.036;5.852;2024-02-28T02:03:00;5.11;79.62
65995;HTU21D;52764;51.036;5.852;2024-02-28T02:05:26;5.02;70.84
65995;HTU21D;52764;51.036;5.852;2024-02-28T02:07:53;5.21;79.01
65995;HTU21D;52764;51.036;5.852;2024-02-28T02:10:20;5.20;78.97
65995;HTU21D;52764;51.036;5.852;2024-02-28T02:12:47;5.22;79.14
65995;HTU21D;52764;51.036;5.852;2024-02-28T02:15:12;5.27;79.23
65995;HTU21D;52764;51.036;5.852;2024-02-28T02:17:38;5.32;79.13
65995;HTU21D;52764;51.036;5.852;2024-02-28T02:20:04;5.24;79.37
65995;HTU21D;52764;51.036;5.852;2024-02-28T02:22:37;5.21;79.57
65995;HTU21D;52764;51.036;5.852;2024-02-28T02:25:04;5.24;79.86
65995;HTU21D;52764;51.036;5.852;2024-02-28T02:27:30;5.27;80.17
65995;HTU21D;52764;51.036;5.852;2024-02-28T02:29:55;5.31;80.39
65995;HTU21D;52764;51.036;5.852;2024-02-28T02:32:21;5.35;80.78
65995;HTU21D;52764;51.036;5.852;2024-02-28T02:34:47;5.40;80.92
65995;HTU21D;52764;51.036;5.852;2024-02-28T02:37:12;5.45;81.04
65995;HTU21D;52764;51.036;5.852;2024-02-28T02:39:38;5.43;81.15
65995;HTU21D;52764;51.036;5.852;2024-02-28T02:42:04;5.48;74.68
65995;HTU21D;52764;51.036;5.852;2024-02-28T02:44:30;5.53;81.26
65995;HTU21D;52764;51.036;5.852;2024-02-28T02:46:55;5.61;80.96
65995;HTU21D;52764;51.036;5.852;2024-02-28T02:49:21;5.83;81.13
65995;HTU21D;52764;51.036;5.852;2024-02-28T02:51:47;5.59;81.17
65995;HTU21D;52764;51.036;5.852;2024-02-28T02:54:13;5.63;81.16
65995;HTU21D;52764;51.036;5.852;2024-02-28T02:56:41;5.64;81.14
65995;HTU21D;52764;51.036;5.852;2024-02-28T02:59:12;5.66;81.06
65995;HTU21D;52764;51.036;5.852;2024-02-28T03:01:38;5.65;81.07
65995;HTU21D;52764;51.036;5.852;2024-02-28T03:04:04;5.64;81.13
65995;HTU21D;52764;51.036;5.852;2024-02-28T03:06:29;5.62;80.37
65995;HTU21D;52764;51.036;5.852;2024-02-28T03:08:55;5.57;81.12
65995;HTU21D;52764;51.036;5.852;2024-02-28T03:11:21;5.59;81.33
65995;HTU21D;52764;51.036;5.852;2024-02-28T03:13:47;5.92;81.45
65995;HTU21D;52764;51.036;5.852;2024-02-28T03:16:12;5.66;81.38
65995;HTU21D;52764;51.036;5.852;2024-02-28T03:18:38;5.67;81.37
65995;HTU21D;52764;51.036;5.852;2024-02-28T03:21:04;5.70;74.88
65995;HTU21D;52764;51.036;5.852;2024-02-28T03:23:29;5.72;81.14
65995;HTU21D;52764;51.036;5.852;2024-02-28T03:25:55;5.69;80.65
65995;HTU21D;52764;51.036;5.852;2024-02-28T03:28:21;5.64;80.50
65995;HTU21D;52764;51.036;5.852;2024-02-28T03:30:47;14.07;80.67
65995;HTU21D;52764;51.036;5.852;2024-02-28T03:33:12;5.57;80.86
65995;HTU21D;52764;51.036;5.852;2024-02-28T03:35:38;5.55;80.81
65995;HTU21D;52764;51.036;5.852;2024-02-28T03:38:04;5.54;80.89
65995;HTU21D;52764;51.036;5.852;2024-02-28T03:40:29;5.52;80.95
65995;HTU21D;52764;51.036;5.852;2024-02-28T03:42:55;5.49;80.94
65995;HTU21D;52764;51.036;5.852;2024-02-28T03:45:21;5.51;81.14
65995;HTU21D;52764;51.036;5.852;2024-02-28T03:47:47;5.54;80.98
65995;HTU21D;52764;51.036;5.852;2024-02-28T03:50:12;5.55;80.90
65995;HTU21D;52764;51.036;5.852;2024-02-28T03:52:38;5.62;80.81
65995;HTU21D;52764;51.036;5.852;2024-02-28T03:55:04;5.66;80.56
65995;HTU21D;52764;51.036;5.852;2024-02-28T03:57:30;5.68;80.38
65995;HTU21D;52764;51.036;5.852;2024-02-28T03:59:56;5.67;80.36
65995;HTU21D;52764;51.036;5.852;2024-02-28T04:02:21;5.69;80.37
65995;HTU21D;52764;51.036;5.852;2024-02-28T04:04:47;5.74;80.85
65995;HTU21D;52764;51.036;5.852;2024-02-28T04:07:13;5.77;80.39
65995;HTU21D;52764;51.036;5.852;2024-02-28T04:09:38;5.76;80.66
65995;HTU21D;52764;51.036;5.852;2024-02-28T04:12:04;5.75;80.78
65995;HTU21D;52764;51.036;5.852;2024-02-28T04:14:30;5.75;80.82
65995;HTU21D;52764;51.036;5.852;2024-02-28T04:16:56;5.81;80.75
65995;HTU21D;52764;51.036;5.852;2024-02-28T04:19:21;5.81;80.79
65995;HTU21D;52764;51.036;5.852;2024-02-28T04:21:47;5.82;80.94
65995;HTU21D;52764;51.036;5.852;2024-02-28T04:24:13;5.87;80.91
65995;HTU21D;52764;51.036;5.852;2024-02-28T04:26:39;5.93;80.80
65995;HTU21D;52764;51.036;5.852;2024-02-28T04:29:04;5.96;80.66
65995;HTU21D;52764;51.036;5.852;2024-02-28T04:31:33;6.08;72.61
65995;HTU21D;52764;51.036;5.852;2024-02-28T04:33:58;6.08;80.07
65995;HTU21D;52764;51.036;5.852;2024-02-28T04:36:24;6.22;79.91
65995;HTU21D;52764;51.036;5.852;2024-02-28T04:38:50;6.12;79.86
65995;HTU21D;52764;51.036;5.852;2024-02-28T04:41:16;6.14;79.75
65995;HTU21D;52764;51.036;5.852;2024-02-28T04:43:41;6.15;79.85
65995;HTU21D;52764;51.036;5.852;2024-02-28T04:46:07;6.15;79.71
65995;HTU21D;52764;51.036;5.852;2024-02-28T04:48:33;6.15;79.88
65995;HTU21D;52764;51.036;5.852;2024-02-28T04:51:00;6.17;79.98
65995;HTU21D;52764;51.036;5.852;2024-02-28T04:53:27;6.21;80.01
65995;HTU21D;52764;51.036;5.852;2024-02-28T04:55:53;6.25;79.99
65995;HTU21D;52764;51.036;5.852;2024-02-28T04:58:19;6.30;79.76
65995;HTU21D;52764;51.036;5.852;2024-02-28T05:00:45;6.34;79.72
65995;HTU21D;52764;51.036;5.852;2024-02-28T05:03:10;6.36;79.75
65995;HTU21D;52764;51.036;5.852;2024-02-28T05:05:36;6.38;79.66
65995;HTU21D;52764;51.036;5.852;2024-02-28T05:08:02;4.76;79.64
65995;HTU21D;52764;51.036;5.852;2024-02-28T05:10:28;15.74;79.61
65995;HTU21D;52764;51.036;5.852;2024-02-28T05:12:53;6.40;79.53
65995;HTU21D;52764;51.036;5.852;2024-02-28T05:15:19;6.50;79.51
65995;HTU21D;52764;51.036;5.852;2024-02-28T05:17:45;6.41;79.43
65995;HTU21D;52764;51.036;5.852;2024-02-28T05:20:11;6.41;79.34
65995;HTU21D;52764;51.036;5.852;2024-02-28T05:22:37;6.42;79.27
65995;HTU21D;52764;51.036;5.852;2024-02-28T05:25:03;6.41;79.32
65995;HTU21D;52764;51.036;5.852;2024-02-28T05:27:29;6.40;79.25
65995;HTU21D;52764;51.036;5.852;2024-02-28T05:29:54;6.39;79.32
65995;HTU21D;52764;51.036;5.852;2024-02-28T05:32:20;6.38;79.33
65995;HTU21D;52764;51.036;5.852;2024-02-28T05:34:46;6.39;70.88
65995;HTU21D;52764;51.036;5.852;2024-02-28T05:37:12;15.70;79.32
65995;HTU21D;52764;51.036;5.852;2024-02-28T05:39:38;6.40;79.27
65995;HTU21D;52764;51.036;5.852;2024-02-28T05:42:04;6.41;79.21
65995;HTU21D;52764;51.036;5.852;2024-02-28T05:44:30;6.41;79.21
65995;HTU21D;52764;51.036;5.852;2024-02-28T05:46:56;6.43;79.27
65995;HTU21D;52764;51.036;5.852;2024-02-28T05:49:22;6.40;79.05
65995;HTU21D;52764;51.036;5.852;2024-02-28T05:51:48;6.28;78.97
65995;HTU21D;52764;51.036;5.852;2024-02-28T05:54:13;6.15;79.24
65995;HTU21D;52764;51.036;5.852;2024-02-28T05:56:39;6.06;79.59
65995;HTU21D;52764;51.036;5.852;2024-02-28T05:59:05;5.99;79.92
65995;HTU21D;52764;51.036;5.852;2024-02-28T06:01:31;5.97;80.29
65995;HTU21D;52764;51.036;5.852;2024-02-28T06:03:59;5.99;80.26
65995;HTU21D;52764;51.036;5.852;2024-02-28T06:06:25;5.83;80.18
65995;HTU21D;52764;51.036;5.852;2024-02-28T06:08:51;5.70;80.68
65995;HTU21D;52764;51.036;5.852;2024-02-28T06:11:17;5.65;81.03
65995;HTU21D;52764;51.036;5.852;2024-02-28T06:13:43;5.67;81.54
65995;HTU21D;52764;51.036;5.852;2024-02-28T06:16:14;5.78;81.51
65995;HTU21D;52764;51.036;5.852;2024-02-28T06:18:41;3.62;81.39
65995;HTU21D;52764;51.036;5.852;2024-02-28T06:21:07;5.92;81.32
65995;HTU21D;52764;51.036;5.852;2024-02-28T06:23:32;5.97;81.23
65995;HTU21D;52764;51.036;5.852;2024-02-28T06:25:58;6.04;81.14
65995;HTU21D;52764;51.036;5.852;2024-02-28T06:28:24;6.10;80.98
65995;HTU21D;52764;51.036;5.852;2024-02-28T06:30:50;6.15;80.65
65995;HTU21D;52764;51.036;5.852;2024-02-28T06:33:15;6.14;80.60
65995;HTU21D;52764;51.036;5.852;2024-02-28T06:35:41;6.16;80.56
65995;HTU21D;52764;51.036;5.852;2024-02-28T06:38:07;6.12;80.33
65995;HTU21D;52764;51.036;5.852;2024-02-28T06:40:33;6.07;80.51
65995;HTU21D;52764;51.036;5.852;2024-02-28T06:43:00;6.09;80.55
65995;HTU21D;52764;51.036;5.852;2024-02-28T06:45:25;6.11;80.65
65995;HTU21D;52764;51.036;5.852;2024-02-28T06:47:51;6.08;80.50
65995;HTU21D;52764;51.036;5.852;2024-02-28T06:50:17;6.06;80.64
65995;HTU21D;52764;51.036;5.852;2024-02-28T06:52:43;6.08;80.96
65995;HTU21D;52764;51.036;5.852;2024-02-28T06:55:09;6.15;81.04
65995;HTU21D;52764;51.036;5.852;2024-02-28T06:57:41;6.23;80.91
65995;HTU21D;52764;51.036;5.852;2024-02-28T07:00:09;6.25;81.88
65995;HTU21D;52764;51.036;5.852;2024-02-28T07:02:35;6.07;80.77
65995;HTU21D;52764;51.036;5.852;2024-02-28T07:05:02;6.17;81.29
65995;HTU21D;52764;51.036;5.852;2024-02-28T07:07:33;6.10;80.80
65995;HTU21D;52764;51.036;5.852;2024-02-28T07:09:59;6.08;81.21
65995;HTU21D;52764;51.036;5.852;2024-02-28T07:12:25;6.08;81.32
65995;HTU21D;52764;51.036;5.852;2024-02-28T07:14:52;6.16;81.50
65995;HTU21D;52764;51.036;5.852;2024-02-28T07:17:18;6.21;81.20
65995;HTU21D;52764;51.036;5.852;2024-02-28T07:19:44;6.17;81.28
65995;HTU21D;52764;51.036;5.852;2024-02-28T07:22:10;6.23;81.47
65995;HTU21D;52764;51.036;5.852;2024-02-28T07:24:35;6.34;81.63
65995;HTU21D;52764;51.036;5.852;2024-02-28T07:27:02;6.43;81.33
65995;HTU21D;52764;51.036;5.852;2024-02-28T07:29:28;6.46;81.11
65995;HTU21D;52764;51.036;5.852;2024-02-28T07:31:54;6.50;81.33
65995;HTU21D;52764;51.036;5.852;2024-02-28T07:34:20;6.57;81.15
65995;HTU21D;52764;51.036;5.852;2024-02-28T07:36:45;6.69;80.92
65995;HTU21D;52764;51.036;5.852;2024-02-28T07:39:11;6.72;80.49
65995;HTU21D;52764;51.036;5.852;2024-02-28T07:41:39;6.69;80.40
65995;HTU21D;52764;51.036;5.852;2024-02-28T07:44:05;6.73;80.80
65995;HTU21D;52764;51.036;5.852;2024-02-28T07:46:32;6.87;80.57
65995;HTU21D;52764;51.036;5.852;2024-02-28T07:48:58;6.90;80.35
65995;HTU21D;52764;51.036;5.852;2024-02-28T07:51:24;6.95;79.85
65995;HTU21D;52764;51.036;5.852;2024-02-28T07:53:49;6.96;80.04
65995;HTU21D;52764;51.036;5.852;2024-02-28T07:56:19;7.07;79.84
65995;HTU21D;52764;51.036;5.852;2024-02-28T07:58:45;7.11;79.50
65995;HTU21D;52764;51.036;5.852;2024-02-28T08:01:11;7.13;79.46
65995;HTU21D;52764;51.036;5.852;2024-02-28T08:03:37;7.13;79.51
65995;HTU21D;52764;51.036;5.852;2024-02-28T08:06:03;7.14;79.17
65995;HTU21D;52764;51.036;5.852;2024-02-28T08:08:29;7.17;79.08
65995;HTU21D;52764;51.036;5.852;2024-02-28T08:10:55;7.26;79.17
65995;HTU21D;52764;51.036;5.852;2024-02-28T08:13:20;7.44;79.11
65995;HTU21D;52764;51.036;5.852;2024-02-28T08:15:48;7.52;78.47
65995;HTU21D;52764;51.036;5.852;2024-02-28T08:18:13;7.57;78.73
65995;HTU21D;52764;51.036;5.852;2024-02-28T08:20:39;7.75;78.62
65995;HTU21D;52764;51.036;5.852;2024-02-28T08:23:06;7.99;78.32
65995;HTU21D;52764;51.036;5.852;2024-02-28T08:25:32;8.20;77.67
65995;HTU21D;52764;51.036;5.852;2024-02-28T08:27:58;8.33;77.08
65995;HTU21D;52764;51.036;5.852;2024-02-28T08:30:24;8.42;76.60
65995;HTU21D;52764;51.036;5.852;2024-02-28T08:32:50;8.56;76.60
65995;HTU21D;52764;51.036;5.852;2024-02-28T08:35:18;8.68;76.53
65995;HTU21D;52764;51.036;5.852;2024-02-28T08:37:44;8.79;76.47
65995;HTU21D;52764;51.036;5.852;2024-02-28T08:40:10;8.79;75.96
65995;HTU21D;52764;51.036;5.852;2024-02-28T08:42:37;8.79;76.15
65995;HTU21D;52764;51.036;5.852;2024-02-28T08:45:03;8.86;75.86
65995;HTU21D;52764;51.036;5.852;2024-02-28T08:47:31;8.94;75.55
65995;HTU21D;52764;51.036;5.852;2024-02-28T08:49:57;-23.02;75.18
65995;HTU21D;52764;51.036;5.852;2024-02-28T08:52:23;9.03;74.99
65995;HTU21D;52764;51.036;5.852;2024-02-28T08:54:49;9.00;74.86
65995;HTU21D;52764;51.036;5.852;2024-02-28T08:57:15;9.04;74.94
65995;HTU21D;52764;51.036;5.852;2024-02-28T08:59:41;9.19;74.85
65995;HTU21D;52764;51.036;5.852;2024-02-28T09:02:07;9.26;61.13
65995;HTU21D;52764;51.036;5.852;2024-02-28T09:04:34;9.33;76.45
65995;HTU21D;52764;51.036;5.852;2024-02-28T09:06:59;9.38;73.92
65995;HTU21D;52764;51.036;5.852;2024-02-28T09:09:26;9.48;73.83
65995;HTU21D;52764;51.036;5.852;2024-02-28T09:11:54;9.44;73.58
65995;HTU21D;52764;51.036;5.852;2024-02-28T09:14:19;9.44;73.41
65995;HTU21D;52764;51.036;5.852;2024-02-28T09:16:45;9.44;73.35
65995;HTU21D;52764;51.036;5.852;2024-02-28T09:19:11;9.52;73.14
65995;HTU21D;52764;51.036;5.852;2024-02-28T09:21:36;9.61;73.05
65995;HTU21D;52764;51.036;5.852;2024-02-28T09:24:02;9.75;72.79
65995;HTU21D;52764;51.036;5.852;2024-02-28T09:26:28;9.83;72.55
65995;HTU21D;52764;51.036;5.852;2024-02-28T09:28:54;9.97;72.42
65995;HTU21D;52764;51.036;5.852;2024-02-28T09:31:20;10.12;72.19
65995;HTU21D;52764;51.036;5.852;2024-02-28T09:33:45;10.15;71.42
65995;HTU21D;52764;51.036;5.852;2024-02-28T09:36:12;10.13;71.15
65995;HTU21D;52764;51.036;5.852;2024-02-28T09:38:38;12.14;71.08
65995;HTU21D;52764;51.036;5.852;2024-02-28T09:41:04;10.10;71.35
65995;HTU21D;52764;51.036;5.852;2024-02-28T09:43:31;10.07;86.38
65995;HTU21D;52764;51.036;5.852;2024-02-28T09:46:04;10.14;71.39
65995;HTU21D;52764;51.036;5.852;2024-02-28T09:48:33;10.27;71.35
65995;HTU21D;52764;51.036;5.852;2024-02-28T09:51:00;10.40;71.31
65995;HTU21D;52764;51.036;5.852;2024-02-28T09:53:26;10.51;70.93
65995;HTU21D;52764;51.036;5.852;2024-02-28T09:55:52;10.62;70.68
65995;HTU21D;52764;51.036;5.852;2024-02-28T09:58:19;10.72;70.46
65995;HTU21D;52764;51.036;5.852;2024-02-28T10:00:48;10.83;69.90
65995;HTU21D;52764;51.036;5.852;2024-02-28T10:03:18;10.81;69.57
65995;HTU21D;52764;51.036;5.852;2024-02-28T10:05:49;10.87;69.70
65995;HTU21D;52764;51.036;5.852;2024-02-28T10:08:15;10.90;69.36
65995;HTU21D;52764;51.036;5.852;2024-02-28T10:10:50;10.95;69.25
65995;HTU21D;52764;51.036;5.852;2024-02-28T10:13:20;10.99;69.16
65995;HTU21D;52764;51.036;5.852;2024-02-28T10:15:48;11.02;68.94
65995;HTU21D;52764;51.036;5.852;2024-02-28T10:18:14;11.04;69.00
65995;HTU21D;52764;51.036;5.852;2024-02-28T10:20:40;11.08;68.97
65995;HTU21D;52764;51.036;5.852;2024-02-28T10:23:06;11.15;68.81
65995;HTU21D;52764;51.036;5.852;2024-02-28T10:25:41;11.23;68.46
65995;HTU21D;52764;51.036;5.852;2024-02-28T10:28:07;11.28;68.32
65995;HTU21D;52764;51.036;5.852;2024-02-28T10:30:32;11.34;68.14
65995;HTU21D;52764;51.036;5.852;2024-02-28T10:32:58;11.39;67.71
65995;HTU21D;52764;51.036;5.852;2024-02-28T10:35:25;11.41;67.55
65995;HTU21D;52764;51.036;5.852;2024-02-28T10:37:52;11.46;78.80
65995;HTU21D;52764;51.036;5.852;2024-02-28T10:40:20;11.55;67.71
65995;HTU21D;52764;51.036;5.852;2024-02-28T10:42:48;11.66;67.55
65995;HTU21D;52764;51.036;5.852;2024-02-28T10:45:17;11.73;67.06
65995;HTU21D;52764;51.036;5.852;2024-02-28T10:47:43;11.81;67.14
65995;HTU21D;52764;51.036;5.852;2024-02-28T10:50:09;11.85;66.49
65995;HTU21D;52764;51.036;5.852;2024-02-28T10:52:44;11.81;66.37
65995;HTU21D;52764;51.036;5.852;2024-02-28T10:55:13;-17.36;66.43
65995;HTU21D;52764;51.036;5.852;2024-02-28T10:57:40;11.85;66.69
65995;HTU21D;52764;51.036;5.852;2024-02-28T11:00:08;11.92;66.69
65995;HTU21D;52764;51.036;5.852;2024-02-28T11:02:34;11.98;66.27
65995;HTU21D;52764;51.036;5.852;2024-02-28T11:05:00;11.92;66.05
65995;HTU21D;52764;51.036;5.852;2024-02-28T11:07:27;11.89;66.18
65995;HTU21D;52764;51.036;5.852;2024-02-28T11:09:56;11.90;66.18
65995;HTU21D;52764;51.036;5.852;2024-02-28T11:12:28;11.91;76.31
65995;HTU21D;52764;51.036;5.852;2024-02-28T11:15:02;11.94;66.56
65995;HTU21D;52764;51.036;5.852;2024-02-28T11:17:29;12.01;66.36
65995;HTU21D;52764;51.036;5.852;2024-02-28T11:19:56;12.10;66.43
65995;HTU21D;52764;51.036;5.852;2024-02-28T11:22:22;12.26;66.29
65995;HTU21D;52764;51.036;5.852;2024-02-28T11:24:48;12.34;66.03
65995;HTU21D;52764;51.036;5.852;2024-02-28T11:27:16;12.42;65.50
65995;HTU21D;52764;51.036;5.852;2024-02-28T11:29:42;12.48;65.05
65995;HTU21D;52764;51.036;5.852;2024-02-28T11:32:10;12.55;64.97
65995;HTU21D;52764;51.036;5.852;2024-02-28T11:34:37;12.48;64.51
65995;HTU21D;52764;51.036;5.852;2024-02-28T11:37:06;12.49;64.95
65995;HTU21D;52764;51.036;5.852;2024-02-28T11:39:32;12.57;65.50
65995;HTU21D;52764;51.036;5.852;2024-02-28T11:42:11;12.70;64.72
65995;HTU21D;52764;51.036;5.852;2024-02-28T11:44:38;-15.28;64.09
65995;HTU21D;52764;51.036;5.852;2024-02-28T11:47:04;12.97;63.50
65995;HTU21D;52764;51.036;5.852;2024-02-28T11:49:33;13.06;62.70
65995;HTU21D;52764;51.036;5.852;2024-02-28T11:51:59;13.07;62.39
65995;HTU21D;52764;51.036;5.852;2024-02-28T11:54:24;13.07;62.08
65995;HTU21D;52764;51.036;5.852;2024-02-28T11:56:50;13.04;62.15
65995;HTU21D;52764;51.036;5.852;2024-02-28T11:59:16;12.96;62.35
65995;HTU21D;52764;51.036;5.852;2024-02-28T12:01:43;13.02;62.18
65995;HTU21D;52764;51.036;5.852;2024-02-28T12:04:12;13.15;61.46
65995;HTU21D;52764;51.036;5.852;2024-02-28T12:06:40;13.20;60.76
65995;HTU21D;52764;51.036;5.852;2024-02-28T12:09:12;13.22;60.80
65995;HTU21D;52764;51.036;5.852;2024-02-28T12:11:40;13.37;60.30
65995;HTU21D;52764;51.036;5.852;2024-02-28T12:14:10;13.50;59.73
65995;HTU21D;52764;51.036;5.852;2024-02-28T12:16:39;13.48;59.90
65995;HTU21D;52764;51.036;5.852;2024-02-28T12:19:09;13.51;60.18
65995;HTU21D;52764;51.036;5.852;2024-02-28T12:21:36;13.62;63.44
65995;HTU21D;52764;51.036;5.852;2024-02-28T12:24:02;13.74;59.57
65995;HTU21D;52764;51.036;5.852;2024-02-28T12:26:30;13.75;59.07
65995;HTU21D;52764;51.036;5.852;2024-02-28T12:28:55;13.83;59.34
65995;HTU21D;52764;51.036;5.852;2024-02-28T12:31:22;13.96;58.78
65995;HTU21D;52764;51.036;5.852;2024-02-28T12:33:48;13.91;58.82
65995;HTU21D;52764;51.036;5.852;2024-02-28T12:36:14;13.88;59.09
65995;HTU21D;52764;51.036;5.852;2024-02-28T12:38:39;13.89;58.93
65995;HTU21D;52764;51.036;5.852;2024-02-28T12:41:08;13.92;58.67
65995;HTU21D;52764;51.036;5.852;2024-02-28T12:43:34;13.97;58.59
65995;HTU21D;52764;51.036;5.852;2024-02-28T12:46:00;14.00;58.60
65995;HTU21D;52764;51.036;5.852;2024-02-28T12:48:25;14.00;60.38
65995;HTU21D;52764;51.036;5.852;2024-02-28T12:50:51;13.86;58.58
65995;HTU21D;52764;51.036;5.852;2024-02-28T12:53:17;13.83;58.95
65995;HTU21D;52764;51.036;5.852;2024-02-28T12:55:43;13.77;58.74
65995;HTU21D;52764;51.036;5.852;2024-02-28T12:58:10;13.77;58.90
65995;HTU21D;52764;51.036;5.852;2024-02-28T13:00:36;13.75;59.30
65995;HTU21D;52764;51.036;5.852;2024-02-28T13:03:02;13.68;59.13
65995;HTU21D;52764;51.036;5.852;2024-02-28T13:05:29;13.65;59.29
65995;HTU21D;52764;51.036;5.852;2024-02-28T13:07:55;13.63;59.70
65995;HTU21D;52764;51.036;5.852;2024-02-28T13:10:20;13.62;59.66
65995;HTU21D;52764;51.036;5.852;2024-02-28T13:12:47;13.61;59.83
65995;HTU21D;52764;51.036;5.852;2024-02-28T13:15:13;13.62;63.31
65995;HTU21D;52764;51.036;5.852;2024-02-28T13:17:39;13.62;59.77
65995;HTU21D;52764;51.036;5.852;2024-02-28T13:20:07;13.66;59.76
65995;HTU21D;52764;51.036;5.852;2024-02-28T13:22:33;13.68;59.81
65995;HTU21D;52764;51.036;5.852;2024-02-28T13:24:59;13.63;59.64
65995;HTU21D;52764;51.036;5.852;2024-02-28T13:27:26;13.58;59.61
65995;HTU21D;52764;51.036;5.852;2024-02-28T13:29:52;13.59;59.82
65995;HTU21D;52764;51.036;5.852;2024-02-28T13:32:17;13.66;59.80
65995;HTU21D;52764;51.036;5.852;2024-02-28T13:34:43;13.69;59.76
65995;HTU21D;52764;51.036;5.852;2024-02-28T13:37:09;8.45;59.90
65995;HTU21D;52764;51.036;5.852;2024-02-28T13:39:35;13.80;59.83
65995;HTU21D;52764;51.036;5.852;2024-02-28T13:42:01;13.83;59.90
65995;HTU21D;52764;51.036;5.852;2024-02-28T13:44:28;13.93;59.93
65995;HTU21D;52764;51.036;5.852;2024-02-28T13:46:54;14.03;59.82
65995;HTU21D;52764;51.036;5.852;2024-02-28T13:49:20;14.09;59.71
65995;HTU21D;52764;51.036;5.852;2024-02-28T13:51:46;14.14;59.66
65995;HTU21D;52764;51.036;5.852;2024-02-28T13:54:13;-11.58;59.50
65995;HTU21D;52764;51.036;5.852;2024-02-28T13:56:39;14.05;59.49
65995;HTU21D;52764;51.036;5.852;2024-02-28T13:59:04;13.98;59.54
65995;HTU21D;52764;51.036;5.852;2024-02-28T14:01:32;14.05;59.69
65995;HTU21D;52764;51.036;5.852;2024-02-28T14:03:57;13.98;59.89
65995;HTU21D;52764;51.036;5.852;2024-02-28T14:06:23;14.39;62.95
65995;HTU21D;52764;51.036;5.852;2024-02-28T14:08:49;13.90;60.17
65995;HTU21D;52764;51.036;5.852;2024-02-28T14:11:17;13.94;60.32
65995;HTU21D;52764;51.036;5.852;2024-02-28T14:13:42;13.98;60.42
65995;HTU21D;52764;51.036;5.852;2024-02-28T14:16:09;14.03;60.47
65995;HTU21D;52764;51.036;5.852;2024-02-28T14:18:34;14.07;60.70
65995;HTU21D;52764;51.036;5.852;2024-02-28T14:21:00;14.07;60.34
65995;HTU21D;52764;51.036;5.852;2024-02-28T14:23:27;14.04;60.23
65995;HTU21D;52764;51.036;5.852;2024-02-28T14:25:53;14.35;60.61
65995;HTU21D;52764;51.036;5.852;2024-02-28T14:28:19;13.93;60.68
65995;HTU21D;52764;51.036;5.852;2024-02-28T14:30:45;13.90;60.78
65995;HTU21D;52764;51.036;5.852;2024-02-28T14:33:13;13.92;61.00
65995;HTU21D;52764;51.036;5.852;2024-02-28T14:35:38;13.92;61.02
65995;HTU21D;52764;51.036;5.852;2024-02-28T14:38:04;13.92;61.19
65995;HTU21D;52764;51.036;5.852;2024-02-28T14:40:32;13.83;60.89
65995;HTU21D;52764;51.036;5.852;2024-02-28T14:42:58;13.81;61.35
65995;HTU21D;52764;51.036;5.852;2024-02-28T14:45:23;13.81;66.24
65995;HTU21D;52764;51.036;5.852;2024-02-28T14:47:52;13.74;62.01
65995;HTU21D;52764;51.036;5.852;2024-02-28T14:50:17;13.71;62.38
65995;HTU21D;52764;51.036;5.852;2024-02-28T14:52:43;13.81;68.30
65995;HTU21D;52764;51.036;5.852;2024-02-28T14:55:10;8.26;62.48
65995;HTU21D;52764;51.036;5.852;2024-02-28T14:57:37;13.63;62.60
65995;HTU21D;52764;51.036;5.852;2024-02-28T15:00:03;13.65;62.63
65995;HTU21D;52764;51.036;5.852;2024-02-28T15:02:34;13.70;62.89
65995;HTU21D;52764;51.036;5.852;2024-02-28T15:05:00;13.96;62.64
65995;HTU21D;52764;51.036;5.852;2024-02-28T15:07:30;13.81;62.72
65995;HTU21D;52764;51.036;5.852;2024-02-28T15:09:56;13.80;62.36
65995;HTU21D;52764;51.036;5.852;2024-02-28T15:12:26;13.80;62.70
65995;HTU21D;52764;51.036;5.852;2024-02-28T15:14:52;13.81;62.56
65995;HTU21D;52764;51.036;5.852;2024-02-28T15:17:20;13.79;62.57
65995;HTU21D;52764;51.036;5.852;2024-02-28T15:19:45;13.81;62.84